Terminal Aerodrome Forecast
Issued by NWS Cleveland, OH

Home | Current Version | Previous Version | Text Only | Print | Product List | Glossary On
Versions: 1 2 3 4 5 6 7 8 9 10 11 12 13 14 15 16 17 18 19 20 21 22 23
000
FTUS41 KCLE 021400 AAA
TAFTOL
TAF AMD
KTOL 021442Z 0215/0312 23010KT P6SM OVC070
      TEMPO 0215/0218 5SM -SHRA
     FM021900 25008KT P6SM SCT250
     FM030200 25003KT 6SM BR SCT250
     FM030600 VRB03KT 3SM BR SCT012 BKN100=

USA.gov is the U.S. government's official web portal to all federal, state and local government web resources and services.